Time;durP1;ratioP1;P1;durP2;ratioP2;P2;SDS_P1;SDS_P2;PMS_P1;PMS_P2;Temp;Humidity;BMP_temperature;BMP_pressure;BME280_temperature;BME280_humidity;BME280_pressure;Samples;Min_cycle;Max_cycle;Signal;HPM_P1;HPM_P2
2024/03/26 00:00:32;;;;;;;4.13;1.20;;;;;;;5.30;100.00;96961.88;5028212;28;20018;-76
2024/03/26 00:02:57;;;;;;;3.78;1.40;;;;;;;5.43;100.00;96996.66;5011490;28;20029;-77
2024/03/26 00:05:22;;;;;;;2.40;1.25;;;;;;;5.31;100.00;96991.13;5041021;28;20252;-76
2024/03/26 00:07:48;;;;;;;5.60;1.38;;;;;;;5.35;100.00;96984.31;5045440;28;20013;-76
2024/03/26 00:10:13;;;;;;;3.90;1.30;;;;;;;5.24;100.00;96968.94;5044292;28;20033;-76
2024/03/26 00:12:38;;;;;;;3.95;1.40;;;;;;;5.22;100.00;96987.06;5031210;28;20025;-77
2024/03/26 00:15:04;;;;;;;7.70;2.05;;;;;;;5.20;100.00;96983.78;5023996;28;20216;-76
2024/03/26 00:17:29;;;;;;;3.13;1.20;;;;;;;4.77;100.00;96931.63;5033217;28;20021;-76
2024/03/26 00:19:54;;;;;;;6.70;1.50;;;;;;;5.12;100.00;96976.00;5045160;28;20090;-76
2024/03/26 00:22:20;;;;;;;2.00;1.10;;;;;;;5.12;100.00;96967.94;5026106;28;20026;-76
2024/03/26 00:24:45;;;;;;;5.13;1.40;;;;;;;5.16;100.00;96974.50;5045342;28;20033;-76
2024/03/26 00:27:11;;;;;;;3.95;1.30;;;;;;;5.03;100.00;96984.28;5044260;28;20075;-76
2024/03/26 00:29:36;;;;;;;1.73;1.08;;;;;;;5.13;100.00;96988.34;5028850;28;20034;-76
2024/03/26 00:32:01;;;;;;;3.10;1.50;;;;;;;5.11;100.00;96972.50;5043792;28;20293;-77
2024/03/26 00:34:27;;;;;;;2.53;1.30;;;;;;;5.16;100.00;96977.19;5025748;28;20092;-76
2024/03/26 00:36:52;;;;;;;2.90;1.45;;;;;;;5.08;100.00;96986.28;5045819;28;20071;-76
2024/03/26 00:39:17;;;;;;;3.38;1.38;;;;;;;4.88;100.00;96969.50;5029026;28;20021;-76
2024/03/26 00:41:43;;;;;;;3.55;1.40;;;;;;;5.00;100.00;96989.22;5026147;28;20026;-77
2024/03/26 00:44:08;;;;;;;3.60;1.50;;;;;;;4.83;100.00;96978.97;5043300;28;20029;-76
2024/03/26 00:46:33;;;;;;;5.18;1.33;;;;;;;4.84;100.00;96974.44;5028748;28;20383;-76
2024/03/26 00:48:58;;;;;;;5.32;1.40;;;;;;;4.61;100.00;96975.78;5025145;28;20028;-76
2024/03/26 00:51:24;;;;;;;3.40;1.63;;;;;;;4.77;100.00;96971.81;5044375;28;20076;-76
2024/03/26 00:53:49;;;;;;;3.28;1.50;;;;;;;4.74;100.00;96979.41;5044711;28;20088;-76
2024/03/26 00:56:14;;;;;;;7.30;1.60;;;;;;;4.59;100.00;96971.66;5023461;28;20033;-76
2024/03/26 00:58:39;;;;;;;9.07;1.40;;;;;;;4.51;100.00;96964.66;5039113;28;20080;-76
2024/03/26 01:01:08;;;;;;;6.72;1.58;;;;;;;4.76;100.00;96980.03;5021164;28;20329;-76
2024/03/26 01:03:34;;;;;;;4.03;1.60;;;;;;;4.64;100.00;96960.28;5028188;28;20029;-77
2024/03/26 01:05:59;;;;;;;3.15;1.45;;;;;;;4.58;100.00;96965.47;5028214;28;20360;-76
2024/03/26 01:08:24;;;;;;;1.88;1.20;;;;;;;4.77;100.00;96985.19;5039823;28;20328;-76
2024/03/26 01:10:51;;;;;;;2.33;1.10;;;;;;;4.60;100.00;96958.03;5043920;28;20071;-76
2024/03/26 01:13:17;;;;;;;3.53;1.48;;;;;;;4.51;100.00;96953.97;5039605;28;20084;-76
2024/03/26 01:15:42;;;;;;;2.80;1.50;;;;;;;4.51;100.00;96961.19;5027730;28;20029;-77
2024/03/26 01:18:08;;;;;;;3.65;1.20;;;;;;;4.29;100.00;96945.34;5024411;28;20390;-76
2024/03/26 01:20:34;;;;;;;2.55;1.55;;;;;;;4.28;100.00;96948.25;5026192;28;20031;-76
2024/03/26 01:22:59;;;;;;;2.92;1.45;;;;;;;4.31;100.00;96942.47;5023009;28;20284;-76
2024/03/26 01:25:25;;;;;;;3.83;1.58;;;;;;;4.37;100.00;96944.31;5023663;28;20025;-76
2024/03/26 01:27:52;;;;;;;3.78;1.50;;;;;;;4.45;100.00;96938.72;5045762;28;20084;-76
2024/03/26 01:30:18;;;;;;;4.43;1.80;;;;;;;4.51;100.00;96956.63;5038483;28;20017;-76
2024/03/26 01:32:43;;;;;;;4.28;1.83;;;;;;;4.43;100.00;96932.78;5042141;28;20049;-76
2024/03/26 01:35:08;;;;;;;7.53;1.52;;;;;;;4.46;100.00;96936.88;5034863;28;20358;-76
2024/03/26 01:37:34;;;;;;;4.40;1.83;;;;;;;4.37;100.00;96939.75;5028576;28;20079;-76
2024/03/26 01:39:59;;;;;;;2.72;1.48;;;;;;;4.12;100.00;96904.84;5031235;28;20339;-75
2024/03/26 01:42:24;;;;;;;3.45;1.83;;;;;;;4.26;100.00;96919.00;5041111;28;20025;-76
2024/03/26 01:44:50;;;;;;;2.88;1.52;;;;;;;4.16;100.00;96892.66;5030748;28;20025;-76
2024/03/26 01:47:15;;;;;;;2.80;1.50;;;;;;;4.14;100.00;96872.53;5026469;28;20216;-76
2024/03/26 01:49:41;;;;;;;2.90;1.50;;;;;;;4.17;100.00;96880.94;5043992;28;20071;-76
2024/03/26 01:52:07;;;;;;;5.65;1.50;;;;;;;4.12;100.00;96859.34;5028460;28;20317;-76
2024/03/26 01:54:32;;;;;;;3.53;1.65;;;;;;;4.17;100.00;96883.63;5025827;28;20040;-76
2024/03/26 01:57:04;;;;;;;3.55;1.50;;;;;;;4.18;100.00;96890.59;5021164;28;20391;-76
2024/03/26 01:59:30;;;;;;;4.75;1.50;;;;;;;4.09;100.00;96861.63;5040814;28;20029;-76
2024/03/26 02:01:55;;;;;;;3.72;1.55;;;;;;;4.18;100.00;96890.59;5019557;28;20091;-76
2024/03/26 02:04:25;;;;;;;3.70;1.60;;;;;;;3.93;100.00;96877.09;5011658;28;20033;-76
2024/03/26 02:06:50;;;;;;;;;;;;;;;3.99;100.00;96902.19;5039262;28;20021;-76
2024/03/26 02:09:16;;;;;;;4.43;1.52;;;;;;;3.84;100.00;96894.38;5017890;28;20151;-75
2024/03/26 02:11:42;;;;;;;3.80;1.33;;;;;;;3.64;100.00;96886.38;5020277;28;20040;-76
2024/03/26 02:14:12;;;;;;;3.08;1.63;;;;;;;3.41;100.00;96872.59;5038825;28;20025;-76
2024/03/26 02:16:40;;;;;;;4.20;1.55;;;;;;;3.32;100.00;96892.53;5025870;28;20040;-76
2024/03/26 02:19:07;;;;;;;3.38;1.73;;;;;;;3.26;100.00;96895.00;5024321;28;20428;-77
2024/03/26 02:21:32;;;;;;;3.42;1.92;;;;;;;3.27;100.00;96875.28;5043357;28;20025;-77
2024/03/26 02:24:02;;;;;;;6.30;1.50;;;;;;;3.47;100.00;96898.50;5026609;28;20088;-77
2024/03/26 02:26:31;;;;;;;5.72;1.67;;;;;;;3.44;100.00;96886.38;5041223;28;20032;-76
2024/03/26 02:28:56;;;;;;;;;;;;;;;3.36;100.00;96896.47;5042826;28;20037;-78
2024/03/26 02:31:22;;;;;;;4.60;1.58;;;;;;;3.25;100.00;96893.34;5041853;28;19975;-77
2024/03/26 02:33:47;;;;;;;4.55;1.77;;;;;;;3.15;100.00;96886.78;5042568;28;20367;-76
2024/03/26 02:36:16;;;;;;;5.93;2.03;;;;;;;2.84;100.00;96862.25;5028384;28;20110;-76
2024/03/26 02:38:41;;;;;;;4.18;1.50;;;;;;;2.89;100.00;96876.84;5026542;28;20025;-77
2024/03/26 02:41:09;;;;;;;3.83;1.55;;;;;;;2.91;100.00;96886.31;5026099;28;20100;-77
2024/03/26 02:43:34;;;;;;;4.78;1.80;;;;;;;2.87;100.00;96873.56;5026921;28;20025;-76
2024/03/26 02:45:59;;;;;;;5.18;1.70;;;;;;;2.97;100.00;96882.00;5025056;28;20025;-76
2024/03/26 02:48:25;;;;;;;4.43;1.77;;;;;;;3.04;100.00;96893.53;5038918;28;20064;-77
2024/03/26 02:50:51;;;;;;;2.75;1.80;;;;;;;2.95;100.00;96884.88;5043423;28;20096;-77
2024/03/26 02:53:18;;;;;;;3.30;1.95;;;;;;;2.95;100.00;96876.03;5031848;28;20022;-77
2024/03/26 02:55:44;;;;;;;8.10;1.73;;;;;;;2.87;100.00;96866.38;5024319;28;20021;-77
2024/03/26 02:58:09;;;;;;;3.33;1.80;;;;;;;2.96;100.00;96873.19;5027704;28;20308;-77
2024/03/26 03:00:34;;;;;;;4.32;2.00;;;;;;;2.92;100.00;96868.44;5025953;28;20041;-77
2024/03/26 03:02:59;;;;;;;4.95;2.00;;;;;;;2.77;100.00;96845.38;5031064;28;20347;-76
2024/03/26 03:05:25;;;;;;;3.55;1.73;;;;;;;3.13;100.00;96870.94;5027599;28;20029;-76
2024/03/26 03:07:50;;;;;;;3.85;1.60;;;;;;;3.10;100.00;96849.97;5052159;28;20017;-77
2024/03/26 03:10:15;;;;;;;3.38;1.80;;;;;;;3.24;100.00;96861.47;5036753;28;20017;-77
2024/03/26 03:12:40;;;;;;;4.38;1.75;;;;;;;3.26;100.00;96849.56;5054771;28;20018;-77
2024/03/26 03:15:06;;;;;;;3.67;2.00;;;;;;;3.16;100.00;96805.56;5052300;28;20029;-77
2024/03/26 03:17:31;;;;;;;3.65;1.65;;;;;;;3.21;100.00;96803.94;5053647;28;20017;-76
2024/03/26 03:19:56;;;;;;;3.03;1.70;;;;;;;3.51;100.00;96848.94;5055686;28;20044;-76
2024/03/26 03:22:22;;;;;;;3.58;1.80;;;;;;;3.43;100.00;96831.28;5038739;28;20100;-76
2024/03/26 03:24:47;;;;;;;3.40;2.00;;;;;;;3.53;100.00;96833.50;5056047;28;20049;-76
2024/03/26 03:27:12;;;;;;;5.78;1.88;;;;;;;3.46;100.00;96828.19;5040523;28;20044;-76
2024/03/26 03:29:44;;;;;;;3.25;1.83;;;;;;;3.41;100.00;96827.16;5057398;28;20044;-77
2024/03/26 03:32:10;;;;;;;2.95;1.60;;;;;;;3.21;100.00;96827.97;5053401;28;20035;-77
2024/03/26 03:34:35;;;;;;;3.05;1.73;;;;;;;3.10;100.00;96807.22;5055503;28;20033;-76
2024/03/26 03:37:03;;;;;;;3.22;2.00;;;;;;;3.20;100.00;96837.03;5055419;28;20024;-77
2024/03/26 03:39:49;;;;;;;3.10;1.50;;;;;;;3.23;100.00;96843.81;5058895;28;20014;-77
2024/03/26 03:42:15;;;;;;;5.13;1.88;;;;;;;2.99;100.00;96818.53;5037413;28;20013;-76
2024/03/26 03:44:40;;;;;;;4.32;1.65;;;;;;;2.96;100.00;96829.59;5061850;28;20088;-76
2024/03/26 03:47:11;;;;;;;5.10;1.92;;;;;;;2.75;100.00;96820.75;5050178;28;20339;-76
2024/03/26 03:49:36;;;;;;;2.78;1.67;;;;;;;2.88;100.00;96832.47;5043029;28;20040;-76
2024/03/26 03:52:03;;;;;;;3.67;1.90;;;;;;;2.74;100.00;96835.09;5042947;28;20052;-77
2024/03/26 03:54:30;;;;;;;4.97;1.50;;;;;;;2.96;100.00;96845.63;5024074;28;20096;-76
2024/03/26 03:56:57;;;;;;;4.70;1.70;;;;;;;3.13;100.00;96843.41;5026106;28;20041;-76
2024/03/26 03:59:22;;;;;;;2.85;1.80;;;;;;;2.61;100.00;96789.69;5020353;28;20079;-78
2024/03/26 04:01:50;;;;;;;3.30;1.80;;;;;;;2.82;100.00;96842.94;5037532;28;20030;-78
2024/03/26 04:04:16;;;;;;;4.78;2.13;;;;;;;2.71;100.00;96840.84;5030562;23;20079;-52
2024/03/26 04:06:41;;;;;;;3.88;1.77;;;;;;;2.67;100.00;96839.59;5025233;28;20105;-52
2024/03/26 04:09:09;;;;;;;6.78;2.67;;;;;;;2.71;100.00;96838.19;5026749;28;20192;-52
2024/03/26 04:11:36;;;;;;;5.35;2.05;;;;;;;2.79;100.00;96821.16;5022707;28;20029;-52
2024/03/26 04:14:01;;;;;;;3.60;1.63;;;;;;;2.74;100.00;96834.28;5028984;28;20060;-52
2024/03/26 04:16:27;;;;;;;6.60;2.17;;;;;;;2.78;100.00;96820.34;5031900;28;20426;-52
2024/03/26 04:18:52;;;;;;;4.55;1.90;;;;;;;2.68;100.00;96821.75;5019695;28;20469;-52
2024/03/26 04:21:18;;;;;;;4.15;1.92;;;;;;;2.79;100.00;96815.81;5027269;28;20032;-52
2024/03/26 04:23:43;;;;;;;5.88;2.00;;;;;;;2.71;100.00;96810.66;5027304;28;20028;-52
2024/03/26 04:26:10;;;;;;;2.97;1.95;;;;;;;2.66;100.00;96808.59;5024343;28;20041;-52
2024/03/26 04:28:36;;;;;;;3.75;1.83;;;;;;;2.72;100.00;96810.44;5022257;28;20481;-53
2024/03/26 04:31:02;;;;;;;4.95;2.13;;;;;;;2.77;100.00;96799.16;5024732;28;20035;-53
2024/03/26 04:33:27;;;;;;;5.43;1.60;;;;;;;2.76;100.00;96795.69;5023272;28;20024;-53
2024/03/26 04:35:59;;;;;;;3.65;1.90;;;;;;;2.84;100.00;96803.50;5024193;28;20047;-51
2024/03/26 04:38:24;;;;;;;5.13;2.00;;;;;;;2.83;100.00;96806.38;5026924;28;20037;-52
2024/03/26 04:40:50;;;;;;;5.03;1.90;;;;;;;2.93;100.00;96804.09;5024499;28;20075;-52
2024/03/26 04:43:15;;;;;;;3.88;2.00;;;;;;;2.81;100.00;96803.91;5022907;28;20429;-52
2024/03/26 04:45:41;;;;;;;3.92;1.85;;;;;;;2.75;100.00;96799.38;5027454;28;20032;-51
2024/03/26 04:48:07;;;;;;;4.63;2.20;;;;;;;2.65;100.00;96804.31;5018720;28;20025;-51
2024/03/26 04:50:32;;;;;;;2.58;1.45;;;;;;;2.56;100.00;96810.84;5029379;28;20073;-52
2024/03/26 04:52:58;;;;;;;4.10;1.77;;;;;;;2.51;100.00;96818.63;5030718;28;20029;-51
2024/03/26 04:55:24;;;;;;;5.40;1.95;;;;;;;2.50;100.00;96817.00;5033302;28;20064;-52
2024/03/26 04:57:50;;;;;;;3.60;1.88;;;;;;;2.39;100.00;96805.06;5030585;28;20017;-51
2024/03/26 05:00:16;;;;;;;5.70;2.00;;;;;;;2.28;100.00;96795.78;5031700;28;20017;-52
2024/03/26 05:02:44;;;;;;;5.03;2.30;;;;;;;2.32;100.00;96815.69;5035283;28;20026;-52
2024/03/26 05:05:10;;;;;;;4.72;1.80;;;;;;;2.42;100.00;96802.78;5029041;28;20048;-52
2024/03/26 05:07:36;;;;;;;4.70;1.90;;;;;;;2.55;100.00;96822.53;5024129;28;20465;-52
2024/03/26 05:10:03;;;;;;;3.38;1.70;;;;;;;2.52;100.00;96809.59;5028869;28;20041;-52
2024/03/26 05:12:29;;;;;;;2.75;1.67;;;;;;;2.46;100.00;96815.72;5030181;28;20063;-52
2024/03/26 05:14:55;;;;;;;6.03;2.03;;;;;;;2.46;100.00;96799.72;5027155;28;20034;-52
2024/03/26 05:17:21;;;;;;;6.10;2.22;;;;;;;2.48;100.00;96800.34;5027360;28;20534;-52
2024/03/26 05:19:46;;;;;;;7.32;2.13;;;;;;;2.45;100.00;96793.56;5020908;28;20029;-52
2024/03/26 05:22:13;;;;;;;2.70;1.90;;;;;;;2.56;100.00;96800.16;5028115;28;20025;-52
2024/03/26 05:24:39;;;;;;;3.85;2.00;;;;;;;2.83;100.00;96801.03;5029947;28;20017;-51
2024/03/26 05:27:05;;;;;;;6.22;2.17;;;;;;;2.99;100.00;96805.97;5026497;28;20399;-52
2024/03/26 05:29:31;;;;;;;6.22;1.83;;;;;;;3.10;100.00;96814.41;5026037;28;20037;-52
2024/03/26 05:31:57;;;;;;;3.22;1.70;;;;;;;3.06;100.00;96811.31;5027815;28;20544;-52
2024/03/26 05:34:23;;;;;;;3.65;2.00;;;;;;;3.11;100.00;96816.88;5023190;28;20524;-52
2024/03/26 05:36:49;;;;;;;4.38;1.92;;;;;;;3.05;100.00;96815.03;5027089;28;20033;-52
2024/03/26 05:39:15;;;;;;;4.15;1.90;;;;;;;3.06;100.00;96817.47;5022788;28;20038;-52
2024/03/26 05:41:40;;;;;;;5.70;1.90;;;;;;;3.11;100.00;96814.19;5026163;28;20022;-52
2024/03/26 05:44:05;;;;;;;3.20;1.70;;;;;;;3.15;100.00;96810.09;5028086;28;20033;-52
2024/03/26 05:46:32;;;;;;;3.58;1.92;;;;;;;3.21;100.00;96808.44;5022755;28;20029;-52
2024/03/26 05:48:58;;;;;;;5.45;2.10;;;;;;;3.34;100.00;96804.97;5033194;28;20376;-52
2024/03/26 05:54:13;;;;;;;4.28;2.20;;;;;;;3.65;100.00;96799.78;5050357;23;20052;-59
2024/03/26 05:56:38;;;;;;;3.28;1.80;;;;;;;3.82;100.00;96800.13;5058941;28;20500;-55
2024/03/26 05:59:04;;;;;;;6.40;1.80;;;;;;;3.94;100.00;96789.63;5059009;28;20033;-63
2024/03/26 06:01:29;;;;;;;4.90;1.90;;;;;;;4.10;100.00;96778.44;5065127;28;22040;-62
2024/03/26 06:04:00;;;;;;;4.68;1.92;;;;;;;4.31;100.00;96788.03;5069997;28;20020;-65
2024/03/26 06:06:25;;;;;;;3.78;2.03;;;;;;;4.36;100.00;96769.47;5069791;28;20045;-62
2024/03/26 06:08:51;;;;;;;4.50;2.10;;;;;;;4.53;100.00;96769.81;5071810;28;20104;-55
2024/03/26 06:11:16;;;;;;;4.90;1.90;;;;;;;4.66;100.00;96760.03;5050366;28;20048;-55
2024/03/26 06:13:43;;;;;;;3.10;1.75;;;;;;;4.84;100.00;96760.09;5053742;28;20055;-55
2024/03/26 06:16:11;;;;;;;4.55;2.00;;;;;;;4.96;100.00;96763.72;5068118;28;20032;-55
2024/03/26 06:18:37;;;;;;;8.32;1.80;;;;;;;5.08;100.00;96754.97;5061703;28;20066;-55
2024/03/26 06:21:06;;;;;;;5.40;1.75;;;;;;;5.10;100.00;96755.59;5068092;28;20074;-56
2024/03/26 06:23:33;;;;;;;3.58;2.03;;;;;;;5.22;100.00;96759.19;5067747;28;20079;-55
2024/03/26 06:25:58;;;;;;;4.07;1.90;;;;;;;5.37;100.00;96758.84;5072062;28;20380;-55
2024/03/26 06:28:24;;;;;;;6.05;2.20;;;;;;;5.55;100.00;96763.41;5066353;28;20032;-55
2024/03/26 06:30:50;;;;;;;3.78;2.00;;;;;;;5.61;100.00;96751.81;5073115;28;20044;-55
2024/03/26 06:33:15;;;;;;;3.90;2.08;;;;;;;5.57;100.00;96755.97;5061281;28;20024;-56
2024/03/26 06:35:42;;;;;;;8.25;2.35;;;;;;;5.52;100.00;96771.91;5048634;28;20361;-55
2024/03/26 06:38:08;;;;;;;3.75;2.10;;;;;;;5.86;100.00;96762.47;5072302;28;20099;-55
2024/03/26 06:40:35;;;;;;;5.00;2.20;;;;;;;6.27;100.00;96769.06;5073893;28;20380;-56
2024/03/26 06:43:09;;;;;;;4.53;2.00;;;;;;;6.47;100.00;96752.66;5068759;28;20377;-55
2024/03/26 06:45:34;;;;;;;12.45;6.57;;;;;;;6.89;100.00;96747.31;5066213;28;20029;-55
2024/03/26 06:48:00;;;;;;;15.77;7.90;;;;;;;7.05;100.00;96743.13;5061416;28;20051;-55
2024/03/26 06:50:25;;;;;;;4.18;2.38;;;;;;;7.00;100.00;96744.66;5072082;28;20112;-55
2024/03/26 06:52:52;;;;;;;4.68;2.08;;;;;;;6.96;100.00;96726.53;5070353;28;20029;-55
2024/03/26 06:55:18;;;;;;;3.72;1.85;;;;;;;7.37;100.00;96739.06;5072123;28;20082;-56
2024/03/26 06:57:46;;;;;;;4.78;2.70;;;;;;;7.96;100.00;96736.31;5068611;28;20144;-56
2024/03/26 07:00:14;;;;;;;3.70;1.77;;;;;;;8.35;100.00;96720.41;5065997;28;20503;-56
2024/03/26 07:02:39;;;;;;;4.18;2.13;;;;;;;8.60;100.00;96722.78;5055572;28;20035;-56
2024/03/26 07:05:05;;;;;;;8.10;3.33;;;;;;;8.79;100.00;96715.31;5065064;28;20461;-56
2024/03/26 07:07:32;;;;;;;24.63;13.35;;;;;;;8.75;100.00;96709.59;5060734;28;20068;-56
2024/03/26 07:09:57;;;;;;;13.57;6.05;;;;;;;8.75;100.00;96709.59;5066393;28;20020;-55
2024/03/26 07:12:23;;;;;;;6.70;3.78;;;;;;;8.80;100.00;96708.84;5061821;28;20028;-56
2024/03/26 07:14:49;;;;;;;5.47;2.90;;;;;;;8.78;100.00;96713.69;5066412;28;20429;-56
2024/03/26 07:17:14;;;;;;;4.72;2.47;;;;;;;8.92;100.00;96719.56;5059529;28;20029;-56
2024/03/26 07:19:39;;;;;;;3.70;2.55;;;;;;;8.92;100.00;96725.78;5065204;28;20476;-55
2024/03/26 07:22:05;;;;;;;3.95;1.98;;;;;;;9.08;100.00;96707.16;5060759;28;20081;-56
2024/03/26 07:24:30;;;;;;;4.53;2.05;;;;;;;9.27;100.00;96713.09;5070874;28;20048;-56
2024/03/26 07:26:56;;;;;;;4.28;1.73;;;;;;;9.62;100.00;96707.44;5063920;28;20522;-55
2024/03/26 07:29:21;;;;;;;4.03;1.65;;;;;;;9.63;100.00;96698.25;5060893;28;20418;-56
2024/03/26 07:31:46;;;;;;;4.45;2.03;;;;;;;9.67;100.00;96702.09;5061251;28;20021;-55
2024/03/26 07:34:12;;;;;;;3.90;1.80;;;;;;;9.59;100.00;96692.53;5062458;28;20037;-55
2024/03/26 07:36:37;;;;;;;6.47;1.83;;;;;;;9.94;100.00;96704.06;5070384;28;20112;-63
2024/03/26 07:39:03;;;;;;;4.50;1.90;;;;;;;9.95;100.00;96700.28;5066594;28;20028;-63
2024/03/26 07:41:29;;;;;;;4.03;1.83;;;;;;;10.15;100.00;96700.53;5064913;28;20111;-62
2024/03/26 07:43:54;;;;;;;4.68;1.50;;;;;;;10.16;100.00;96701.34;5069175;28;20544;-62
2024/03/26 07:46:20;;;;;;;3.80;1.90;;;;;;;10.34;100.00;96701.06;5070239;28;20135;-62
2024/03/26 07:48:46;;;;;;;6.05;1.88;;;;;;;10.32;100.00;96703.19;5070686;28;20025;-62
2024/03/26 07:51:13;;;;;;;4.40;1.83;;;;;;;10.41;100.00;96707.09;5070562;28;20036;-62
2024/03/26 07:53:39;;;;;;;7.30;1.83;;;;;;;10.40;100.00;96696.50;5066614;28;20016;-62
2024/03/26 07:56:05;;;;;;;5.63;1.67;;;;;;;10.41;100.00;96698.97;5073210;28;20047;-63
2024/03/26 07:58:31;;;;;;;4.15;1.83;;;;;;;10.63;100.00;96690.81;5067247;28;20028;-62
2024/03/26 08:00:56;;;;;;;4.47;2.00;;;;;;;10.61;100.00;96682.16;5050474;28;20032;-62
2024/03/26 08:03:22;;;;;;;4.63;1.80;;;;;;;10.38;100.00;96685.16;5068221;28;20027;-62
2024/03/26 08:05:47;;;;;;;4.07;1.80;;;;;;;10.39;100.00;96684.91;5069326;28;20029;-62
2024/03/26 08:08:13;;;;;;;4.95;2.20;;;;;;;10.32;100.00;96689.66;5045932;28;20035;-62
2024/03/26 08:10:38;;;;;;;8.40;1.85;;;;;;;10.09;100.00;96688.88;5047566;28;20108;-62
2024/03/26 08:13:04;;;;;;;5.80;1.88;;;;;;;10.28;100.00;96689.38;5072012;28;20384;-55
2024/03/26 08:15:29;;;;;;;3.60;1.92;;;;;;;10.24;100.00;96682.00;5055142;28;20475;-55
2024/03/26 08:17:55;;;;;;;5.93;1.83;;;;;;;10.48;100.00;96677.16;5064893;28;20025;-61
2024/03/26 08:20:20;;;;;;;2.80;1.80;;;;;;;10.81;100.00;96675.28;5073718;28;20039;-62
2024/03/26 08:22:46;;;;;;;2.80;1.50;;;;;;;11.00;100.00;96668.41;5075553;28;20047;-62
2024/03/26 08:25:11;;;;;;;6.55;2.67;;;;;;;10.70;100.00;96680.59;5074230;28;20048;-64
2024/03/26 08:27:39;;;;;;;2.85;1.83;;;;;;;11.76;100.00;96660.00;5065163;28;20030;-62
2024/03/26 08:30:10;;;;;;;4.10;2.00;;;;;;;12.52;100.00;96661.34;5058646;28;20040;-62
2024/03/26 08:32:36;;;;;;;6.80;2.05;;;;;;;12.70;96.25;96660.81;5073781;28;20134;-62
2024/03/26 08:35:01;;;;;;;3.83;2.20;;;;;;;12.54;90.57;96658.38;5075943;28;20025;-64
2024/03/26 08:37:28;;;;;;;5.43;2.17;;;;;;;13.11;88.42;96662.75;5077839;28;20063;-62
2024/03/26 08:39:54;;;;;;;2.90;1.40;;;;;;;13.80;83.89;96664.81;5078954;28;20020;-62
2024/03/26 08:42:19;;;;;;;8.68;2.10;;;;;;;14.76;76.89;96674.75;5059341;28;20039;-55
2024/03/26 08:44:44;;;;;;;3.63;1.95;;;;;;;14.25;75.70;96675.81;5055453;28;20371;-56
2024/03/26 08:47:10;;;;;;;4.07;1.85;;;;;;;14.27;76.34;96683.69;5069237;28;20509;-56
2024/03/26 08:49:36;;;;;;;3.13;1.80;;;;;;;14.22;76.40;96679.91;5075176;28;20392;-62
2024/03/26 08:52:01;;;;;;;6.13;1.75;;;;;;;13.89;74.29;96677.88;5070694;28;20013;-62
2024/03/26 08:54:26;;;;;;;4.28;1.52;;;;;;;13.67;73.31;96686.34;5068538;28;20021;-62
2024/03/26 08:56:52;;;;;;;4.78;1.60;;;;;;;14.00;75.31;96679.47;5073164;28;20108;-64
2024/03/26 08:59:18;;;;;;;2.55;1.63;;;;;;;14.06;75.75;96672.91;5070336;28;20083;-62
2024/03/26 09:01:44;;;;;;;3.40;1.52;;;;;;;13.78;76.25;96671.63;5072082;28;20032;-63
2024/03/26 09:04:09;;;;;;;4.43;1.63;;;;;;;13.75;75.04;96672.19;5075734;28;20013;-61
2024/03/26 09:06:45;;;;;;;4.32;1.73;;;;;;;13.79;77.81;96678.72;5077364;28;20134;-61
2024/03/26 09:09:10;;;;;;;2.80;1.48;;;;;;;14.42;76.79;96664.59;5067702;28;20111;-62
2024/03/26 09:11:36;;;;;;;6.93;2.17;;;;;;;14.68;73.05;96657.91;5073626;28;20108;-62
2024/03/26 09:14:01;;;;;;;5.53;2.15;;;;;;;14.50;74.93;96665.91;5071003;28;20013;-63
2024/03/26 09:16:27;;;;;;;3.00;1.40;;;;;;;14.39;72.56;96673.31;5068744;28;20029;-62
2024/03/26 09:18:52;;;;;;;6.10;1.98;;;;;;;15.00;73.10;96659.31;5069381;28;20020;-61
2024/03/26 09:21:18;;;;;;;6.95;1.70;;;;;;;15.19;68.88;96658.63;5075571;28;20035;-62
2024/03/26 09:23:43;;;;;;;3.63;1.63;;;;;;;14.24;70.48;96647.81;5074432;28;20050;-62
2024/03/26 09:26:08;;;;;;;5.63;2.20;;;;;;;15.35;69.17;96662.84;5071780;28;20025;-62
2024/03/26 09:28:34;;;;;;;3.78;1.75;;;;;;;15.46;69.78;96650.75;5055039;28;20020;-62
2024/03/26 09:30:59;;;;;;;3.70;1.58;;;;;;;15.56;67.04;96652.53;5056303;28;20520;-62
2024/03/26 09:33:25;;;;;;;4.63;1.77;;;;;;;16.07;66.61;96643.03;5070109;28;20106;-61
2024/03/26 09:35:52;;;;;;;4.93;1.90;;;;;;;17.02;64.58;96638.44;5071362;28;20032;-62
2024/03/26 09:38:18;;;;;;;2.30;1.35;;;;;;;18.53;62.31;96640.50;5064090;28;20074;-63
2024/03/26 09:41:00;;;;;;;3.53;1.80;;;;;;;21.21;58.50;96631.00;5070388;28;20024;-62
2024/03/26 09:43:28;;;;;;;3.60;1.67;;;;;;;22.03;54.35;96632.91;5070375;28;20032;-63
2024/03/26 09:45:58;;;;;;;4.70;1.90;;;;;;;22.79;51.08;96626.47;5069857;28;20491;-62
2024/03/26 09:48:27;;;;;;;3.70;1.52;;;;;;;24.40;49.56;96621.06;5068726;28;20037;-63
2024/03/26 09:50:53;;;;;;;6.07;1.70;;;;;;;25.13;48.76;96617.34;5069821;28;20104;-63
2024/03/26 09:53:22;;;;;;;5.45;1.70;;;;;;;24.52;47.79;96614.72;5071950;28;20499;-63
2024/03/26 09:55:50;;;;;;;4.03;1.50;;;;;;;25.30;46.70;96607.16;5065431;28;20032;-63
2024/03/26 09:58:15;;;;;;;2.20;1.30;;;;;;;25.55;45.57;96603.09;5046750;28;20129;-64
2024/03/26 10:00:49;;;;;;;4.30;1.48;;;;;;;25.51;43.31;96599.41;5072584;28;20099;-63
2024/03/26 10:03:20;;;;;;;3.03;1.45;;;;;;;28.06;42.94;96591.94;5045565;28;20095;-63
2024/03/26 10:05:49;;;;;;;3.90;1.40;;;;;;;28.43;40.94;96585.75;5062918;28;20091;-63
2024/03/26 10:08:14;;;;;;;6.28;1.42;;;;;;;26.62;40.69;96590.31;5067346;28;20028;-64
2024/03/26 10:10:42;;;;;;;3.33;1.25;;;;;;;26.63;41.73;96583.59;5045291;28;20032;-65
2024/03/26 10:13:10;;;;;;;2.85;1.35;;;;;;;26.11;40.71;96579.19;5064106;28;20025;-65
2024/03/26 10:15:38;;;;;;;3.37;1.33;;;;;;;26.95;41.78;96570.38;5064250;28;20044;-64
2024/03/26 10:18:04;;;;;;;2.08;1.20;;;;;;;28.09;39.26;96568.97;5068471;28;20028;-64
2024/03/26 10:20:30;;;;;;;3.90;1.48;;;;;;;29.84;38.22;96564.03;5071617;28;20033;-64
2024/03/26 10:23:06;;;;;;;2.03;1.30;;;;;;;30.86;37.29;96564.38;5058776;28;20078;-64
2024/03/26 10:25:32;;;;;;;3.90;1.35;;;;;;;31.50;35.17;96555.47;5070114;28;20367;-64
2024/03/26 10:27:59;;;;;;;2.38;1.00;;;;;;;32.31;35.19;96542.72;5063802;28;20144;-65
2024/03/26 10:30:31;;;;;;;1.98;1.27;;;;;;;30.40;35.22;96539.78;5066573;28;20040;-65
2024/03/26 10:32:58;;;;;;;3.47;1.20;;;;;;;30.02;35.86;96541.88;5071603;28;20020;-64
2024/03/26 10:35:25;;;;;;;2.53;1.33;;;;;;;30.19;36.32;96535.63;5070236;28;20467;-65
2024/03/26 10:37:52;;;;;;;2.97;1.08;;;;;;;31.31;34.49;96532.25;5067500;28;20381;-64
2024/03/26 10:40:39;;;;;;;3.92;1.20;;;;;;;29.15;35.64;96531.06;5071722;28;20024;-65
2024/03/26 10:43:04;;;;;;;2.17;1.17;;;;;;;29.24;36.00;96529.59;5066614;28;20059;-64
2024/03/26 10:45:30;;;;;;;5.70;1.42;;;;;;;26.78;38.37;96532.00;5065783;28;20460;-64
2024/03/26 10:47:56;;;;;;;3.25;1.20;;;;;;;25.92;38.11;96532.81;5071311;28;20028;-65
2024/03/26 10:50:23;;;;;;;3.25;1.38;;;;;;;25.74;38.76;96529.59;5071127;28;20112;-65
2024/03/26 10:52:50;;;;;;;2.05;1.10;;;;;;;26.90;38.55;96517.97;5066392;28;20955;-65
2024/03/26 10:55:17;;;;;;;2.85;1.30;;;;;;;27.11;37.44;96512.81;5064381;28;20032;-64
2024/03/26 10:57:43;;;;;;;2.38;1.27;;;;;;;29.68;37.47;96497.38;5070769;28;20035;-64
2024/03/26 11:00:13;;;;;;;2.38;1.15;;;;;;;32.08;35.62;96498.38;5067041;28;20025;-64
2024/03/26 11:02:41;;;;;;;2.40;1.33;;;;;;;33.47;34.12;96485.88;5065656;28;20028;-64
2024/03/26 11:05:08;;;;;;;6.50;1.15;;;;;;;33.59;32.80;96484.63;5051947;28;20031;-64
2024/03/26 11:07:36;;;;;;;3.38;1.17;;;;;;;33.12;32.56;96490.50;5074872;28;20036;-66
2024/03/26 11:10:15;;;;;;;3.72;1.38;;;;;;;30.81;33.80;96487.38;5071425;28;20028;-64
2024/03/26 11:12:41;;;;;;;2.47;1.20;;;;;;;31.99;34.98;96470.84;5066332;28;20036;-65
2024/03/26 11:15:22;;;;;;;2.00;1.05;;;;;;;32.36;34.10;96468.75;5064426;28;20042;-64
2024/03/26 11:17:55;;;;;;;3.45;1.25;;;;;;;33.80;33.06;96464.03;5063538;28;20480;-64
2024/03/26 11:20:22;;;;;;;1.80;1.00;;;;;;;31.33;33.86;96464.78;5066507;28;20075;-65
2024/03/26 11:23:04;;;;;;;2.30;0.98;;;;;;;30.39;34.83;96469.22;5059190;28;20576;-65
2024/03/26 11:25:30;;;;;;;3.25;1.20;;;;;;;32.39;33.51;96462.34;5048590;28;20387;-65
2024/03/26 11:27:58;;;;;;;2.42;1.20;;;;;;;33.77;32.11;96445.19;5061651;28;20059;-66
2024/03/26 11:30:27;;;;;;;;;;;;;;;32.68;32.81;96440.69;5077571;28;20036;-66
2024/03/26 11:32:53;;;;;;;3.55;1.23;;;;;;;32.43;33.45;96441.53;5065283;28;20373;-66